createdAt,value
2018-12-05T00:00:15.415Z,6.19
2018-12-05T00:01:15.490Z,6.21
2018-12-05T00:02:15.650Z,6.2
2018-12-05T00:03:15.554Z,6.2
2018-12-05T00:04:15.311Z,6.21
2018-12-05T00:05:15.415Z,6.23
2018-12-05T00:06:16.075Z,6.21
2018-12-05T00:07:15.584Z,6.2
2018-12-05T00:08:15.488Z,6.2
2018-12-05T00:09:15.579Z,6.21
2018-12-05T00:10:15.333Z,6.24
2018-12-05T00:11:15.749Z,6.24
2018-12-05T00:12:15.258Z,6.22
2018-12-05T00:13:15.268Z,6.24
2018-12-05T00:14:15.414Z,6.24
2018-12-05T00:15:15.423Z,6.22
2018-12-05T00:16:15.287Z,6.23
2018-12-05T00:17:15.332Z,6.24
2018-12-05T00:18:15.286Z,6.22
2018-12-05T00:19:15.395Z,6.22
2018-12-05T00:20:15.282Z,6.21
2018-12-05T00:21:15.410Z,6.21
2018-12-05T00:22:15.406Z,6.22
2018-12-05T00:23:15.579Z,6.24
2018-12-05T00:24:15.259Z,6.26
2018-12-05T00:25:15.568Z,6.23
2018-12-05T00:26:15.600Z,6.2
2018-12-05T00:27:15.314Z,6.2
2018-12-05T00:28:15.337Z,6.19
2018-12-05T00:29:15.242Z,6.22
2018-12-05T00:30:15.318Z,6.2
2018-12-05T00:31:15.309Z,6.2
2018-12-05T00:32:15.349Z,6.21
2018-12-05T00:33:15.295Z,6.18
2018-12-05T00:34:15.247Z,6.21
2018-12-05T00:35:15.232Z,6.21
2018-12-05T00:36:15.226Z,6.2
2018-12-05T00:37:15.387Z,6.17
2018-12-05T00:38:15.266Z,6.16
2018-12-05T00:39:15.223Z,6.18
2018-12-05T00:40:15.504Z,6.16
2018-12-05T00:41:15.268Z,6.15
2018-12-05T00:42:15.459Z,6.16
2018-12-05T00:43:15.309Z,6.15
2018-12-05T00:44:15.317Z,6.16
2018-12-05T00:45:15.236Z,6.19
2018-12-05T00:46:15.228Z,6.17
2018-12-05T00:47:15.200Z,6.18
2018-12-05T00:48:15.243Z,6.16
2018-12-05T00:49:15.377Z,6.15
2018-12-05T00:50:15.316Z,6.15
2018-12-05T00:51:15.338Z,6.18
2018-12-05T00:52:15.267Z,6.17
2018-12-05T00:53:15.289Z,6.17
2018-12-05T00:54:15.357Z,6.16
2018-12-05T00:55:15.303Z,6.15
2018-12-05T00:56:15.412Z,6.15
2018-12-05T00:57:15.620Z,6.17
2018-12-05T00:58:15.272Z,6.17
2018-12-05T00:59:15.608Z,6.21
2018-12-05T01:00:15.216Z,6.2
2018-12-05T01:01:15.294Z,6.2
2018-12-05T01:02:15.166Z,6.19
2018-12-05T01:03:15.214Z,6.19
2018-12-05T01:04:15.281Z,6.19
2018-12-05T01:05:15.510Z,6.2
2018-12-05T01:06:15.426Z,6.18
2018-12-05T01:07:15.384Z,6.18
2018-12-05T01:08:15.323Z,6.2
2018-12-05T01:09:15.219Z,6.19
2018-12-05T01:10:15.238Z,6.21
2018-12-05T01:11:15.208Z,6.23
2018-12-05T01:12:15.277Z,6.21
2018-12-05T01:13:15.446Z,6.22
2018-12-05T01:14:15.336Z,6.21
2018-12-05T01:15:15.186Z,6.23
2018-12-05T01:16:15.282Z,6.21
2018-12-05T01:17:15.215Z,6.22
2018-12-05T01:18:15.232Z,6.21
2018-12-05T01:19:15.188Z,6.22
2018-12-05T01:20:15.363Z,6.22
2018-12-05T01:21:15.253Z,6.22
2018-12-05T01:22:15.322Z,6.22
2018-12-05T01:23:15.519Z,6.2
2018-12-05T01:24:15.215Z,6.2
2018-12-05T01:25:15.254Z,6.21
2018-12-05T01:26:15.726Z,6.21
2018-12-05T01:27:15.222Z,6.2
2018-12-05T01:28:15.209Z,6.2
2018-12-05T01:29:15.165Z,6.2
2018-12-05T01:30:15.482Z,6.17
2018-12-05T01:31:15.216Z,6.18
2018-12-05T01:32:15.203Z,6.18
2018-12-05T01:33:16.661Z,6.19
2018-12-05T01:34:15.220Z,6.2
2018-12-05T01:35:15.357Z,6.21
2018-12-05T01:36:15.184Z,6.21
2018-12-05T01:37:15.324Z,6.17
2018-12-05T01:38:15.767Z,6.15
2018-12-05T01:39:15.203Z,6.14
2018-12-05T01:40:15.414Z,6.14
2018-12-05T01:41:15.404Z,6.12
2018-12-05T01:42:15.398Z,6.1
2018-12-05T01:43:15.176Z,6.09
2018-12-05T01:44:15.169Z,6.1
2018-12-05T01:45:15.298Z,6.08
2018-12-05T01:46:15.174Z,6.1
2018-12-05T01:47:15.155Z,6.08
2018-12-05T01:48:15.214Z,6.07
2018-12-05T01:49:15.153Z,6.07
2018-12-05T01:50:15.437Z,6.06
2018-12-05T01:51:15.176Z,6.09
2018-12-05T01:52:15.396Z,6.07
2018-12-05T01:53:15.276Z,6.08
2018-12-05T01:54:15.160Z,6.07
2018-12-05T01:55:15.240Z,6.07
2018-12-05T01:56:15.173Z,6.08
2018-12-05T01:57:15.198Z,6.07
2018-12-05T01:58:15.157Z,6.06
2018-12-05T01:59:15.156Z,6.04
2018-12-05T02:00:15.255Z,6.06
2018-12-05T02:01:15.171Z,6.07
2018-12-05T02:02:15.169Z,6.1
2018-12-05T02:03:15.413Z,6.11
2018-12-05T02:04:15.142Z,6.11
2018-12-05T02:05:15.188Z,6.09
2018-12-05T02:06:15.499Z,6.09
2018-12-05T02:07:15.712Z,6.09
2018-12-05T02:08:15.138Z,6.09
2018-12-05T02:09:15.176Z,6.07
2018-12-05T02:10:15.139Z,6.1
2018-12-05T02:11:15.229Z,6.09
2018-12-05T02:12:15.603Z,6.07
2018-12-05T02:13:15.243Z,6.06
2018-12-05T02:14:15.223Z,6.07
2018-12-05T02:15:15.190Z,6.09
2018-12-05T02:16:15.370Z,6.07
2018-12-05T02:17:15.101Z,6.07
2018-12-05T02:18:15.141Z,6.06
2018-12-05T02:19:15.155Z,6.11
2018-12-05T02:20:15.232Z,6.09
2018-12-05T02:21:15.182Z,6.09
2018-12-05T02:22:15.204Z,6.11
2018-12-05T02:23:15.344Z,6.09
2018-12-05T02:24:15.390Z,6.08
2018-12-05T02:25:15.139Z,6.07
2018-12-05T02:26:15.512Z,6.08
2018-12-05T02:27:15.269Z,6.12
2018-12-05T02:28:15.574Z,6.1
2018-12-05T02:29:15.654Z,6.11
2018-12-05T02:30:15.399Z,6.1
2018-12-05T02:31:15.220Z,6.1
2018-12-05T02:32:15.267Z,6.14
2018-12-05T02:33:15.569Z,6.1
2018-12-05T02:34:15.117Z,6.11
2018-12-05T02:35:15.429Z,6.1
2018-12-05T02:36:15.236Z,6.11
2018-12-05T02:37:15.156Z,6.08
2018-12-05T02:38:15.158Z,6.07
2018-12-05T02:39:15.237Z,6.06
2018-12-05T02:40:15.096Z,6.06
2018-12-05T02:41:15.219Z,6.07
2018-12-05T02:42:15.314Z,6.08
2018-12-05T02:43:15.280Z,6.05
2018-12-05T02:44:15.201Z,6.04
2018-12-05T02:45:15.216Z,6.02
2018-12-05T02:46:15.186Z,6.04
2018-12-05T02:47:15.195Z,6.08
2018-12-05T02:48:15.175Z,6.08
2018-12-05T02:49:15.187Z,6.06
2018-12-05T02:50:15.469Z,6.06
2018-12-05T02:51:15.105Z,6.04
2018-12-05T02:52:15.188Z,6.03
2018-12-05T02:53:15.240Z,6.03
2018-12-05T02:54:15.090Z,6.04
2018-12-05T02:55:15.209Z,6.02
2018-12-05T02:56:15.278Z,6.04
2018-12-05T02:57:15.187Z,6.03
2018-12-05T02:58:15.154Z,6.02
2018-12-05T02:59:15.294Z,6.04
2018-12-05T03:00:15.198Z,6.06
2018-12-05T03:01:15.074Z,6.07
2018-12-05T03:02:15.130Z,6.07
2018-12-05T03:03:15.181Z,6.05
2018-12-05T03:04:15.383Z,6.1
2018-12-05T03:05:15.288Z,6.09
2018-12-05T03:06:15.304Z,6.08
2018-12-05T03:07:15.188Z,6.05
2018-12-05T03:08:15.151Z,6.04
2018-12-05T03:09:15.255Z,6.04
2018-12-05T03:10:15.233Z,6.07
2018-12-05T03:11:15.287Z,6.08
2018-12-05T03:12:15.183Z,6.11
2018-12-05T03:13:15.207Z,6.11
2018-12-05T03:14:15.320Z,6.07
2018-12-05T03:15:15.223Z,6.06
2018-12-05T03:16:15.267Z,6.09
2018-12-05T03:17:15.040Z,6.07
2018-12-05T03:18:15.152Z,6.07
2018-12-05T03:19:15.261Z,6.11
2018-12-05T03:20:15.845Z,6.11
2018-12-05T03:21:15.157Z,6.12
2018-12-05T03:22:15.310Z,6.1
2018-12-05T03:23:15.235Z,6.06
2018-12-05T03:24:15.209Z,6.05
2018-12-05T03:25:15.180Z,6.03
2018-12-05T03:26:15.141Z,6.03
2018-12-05T03:27:15.149Z,6.03
2018-12-05T03:28:15.130Z,6.01
2018-12-05T03:29:15.225Z,6.02
2018-12-05T03:30:15.195Z,6.01
2018-12-05T03:31:15.109Z,6.01
2018-12-05T03:32:15.161Z,5.99
2018-12-05T03:33:15.268Z,5.99
2018-12-05T03:34:15.087Z,5.99
2018-12-05T03:35:14.998Z,5.99
2018-12-05T03:36:15.083Z,5.96
2018-12-05T03:37:15.129Z,5.98
2018-12-05T03:38:15.250Z,5.96
2018-12-05T03:39:15.143Z,5.95
2018-12-05T03:40:14.986Z,5.95
2018-12-05T03:41:15.143Z,5.96
2018-12-05T03:42:15.104Z,5.97
2018-12-05T03:43:14.991Z,6
2018-12-05T03:44:15.053Z,6
2018-12-05T03:45:15.050Z,6.02
2018-12-05T03:46:15.130Z,6.06
2018-12-05T03:47:15.148Z,6.04
2018-12-05T03:48:15.080Z,6.03
2018-12-05T03:49:15.215Z,6.03
2018-12-05T03:50:15.092Z,6.03
2018-12-05T03:51:15.049Z,6.05
2018-12-05T03:52:15.172Z,6.05
2018-12-05T03:53:15.121Z,6.04
2018-12-05T03:54:14.985Z,6.05
2018-12-05T03:55:15.117Z,6.07
2018-12-05T03:56:15.030Z,6.05
2018-12-05T03:57:15.051Z,6.05
2018-12-05T03:58:15.134Z,6.04
2018-12-05T03:59:15.039Z,6.03
2018-12-05T04:00:15.187Z,6.05
2018-12-05T04:01:15.132Z,6.04
2018-12-05T04:02:15.242Z,6.06
2018-12-05T04:03:15.137Z,6.06
2018-12-05T04:04:15.079Z,6.04
2018-12-05T04:05:15.172Z,6.06
2018-12-05T04:06:15.138Z,6.1
2018-12-05T04:07:15.845Z,6.07
2018-12-05T04:08:15.157Z,6.08
2018-12-05T04:09:15.053Z,6.05
2018-12-05T04:10:15.840Z,6.07
2018-12-05T04:11:15.170Z,6.07
2018-12-05T04:12:15.127Z,6.07
2018-12-05T04:13:14.979Z,6.07
2018-12-05T04:14:15.112Z,6.06
2018-12-05T04:15:15.202Z,6.03
2018-12-05T04:16:14.929Z,6.07
2018-12-05T04:17:14.958Z,6.04
2018-12-05T04:18:15.135Z,6.02
2018-12-05T04:19:15.345Z,6.03
2018-12-05T04:20:15.133Z,6.05
2018-12-05T04:21:15.037Z,6.01
2018-12-05T04:22:15.303Z,6.02
2018-12-05T04:23:15.120Z,6.01
2018-12-05T04:24:15.200Z,6.04
2018-12-05T04:25:14.985Z,6.04
2018-12-05T04:26:14.964Z,6.01
2018-12-05T04:27:15.357Z,6.02
2018-12-05T04:28:15.207Z,6.04
2018-12-05T04:29:14.923Z,6.04
2018-12-05T04:30:15.206Z,6.02
2018-12-05T04:31:15.142Z,6.05
2018-12-05T04:32:16.194Z,6.01
2018-12-05T04:33:15.175Z,6.01
2018-12-05T04:34:15.164Z,6.01
2018-12-05T04:35:14.938Z,6.01
2018-12-05T04:36:15.161Z,6.03
2018-12-05T04:37:14.999Z,6.01
2018-12-05T04:38:15.464Z,6
2018-12-05T04:39:15.132Z,6.02
2018-12-05T04:40:15.367Z,6.03
2018-12-05T04:41:14.930Z,6.03
2018-12-05T04:42:14.971Z,6.01
2018-12-05T04:43:15.022Z,5.99
2018-12-05T04:44:14.931Z,6
2018-12-05T04:45:14.969Z,6.02
2018-12-05T04:46:15.179Z,6.01
2018-12-05T04:47:15.202Z,6.02
2018-12-05T04:48:15.024Z,6.03
2018-12-05T04:49:16.059Z,6.02
2018-12-05T04:50:15.145Z,6.01
2018-12-05T04:51:14.984Z,6.01
2018-12-05T04:52:15.364Z,6.02
2018-12-05T04:53:14.975Z,6
2018-12-05T04:54:15.087Z,6
2018-12-05T04:55:14.950Z,5.99
2018-12-05T04:56:14.930Z,6
2018-12-05T04:57:14.875Z,5.99
2018-12-05T04:58:15.163Z,6
2018-12-05T04:59:14.917Z,6.02
2018-12-05T05:00:14.994Z,6.02
2018-12-05T05:01:14.876Z,6.01
2018-12-05T05:02:14.922Z,6.02
2018-12-05T05:03:14.909Z,6.01
2018-12-05T05:04:15.175Z,6
2018-12-05T05:05:15.042Z,6.01
2018-12-05T05:06:14.899Z,6.01
2018-12-05T05:07:15.071Z,6.01
2018-12-05T05:08:15.158Z,6.01
2018-12-05T05:09:14.981Z,6
2018-12-05T05:10:14.982Z,6
2018-12-05T05:11:14.862Z,6.02
2018-12-05T05:12:15.224Z,6.01
2018-12-05T05:13:14.958Z,6
2018-12-05T05:14:14.880Z,6
2018-12-05T05:15:15.217Z,6.02
2018-12-05T05:16:14.848Z,6.03
2018-12-05T05:17:14.841Z,6.01
2018-12-05T05:18:14.881Z,6.06
2018-12-05T05:19:15.232Z,6.04
2018-12-05T05:20:14.977Z,6.02
2018-12-05T05:21:14.910Z,6.02
2018-12-05T05:22:14.878Z,6.03
2018-12-05T05:23:15.108Z,6.03
2018-12-05T05:24:14.925Z,6.02
2018-12-05T05:25:14.879Z,6
2018-12-05T05:26:14.889Z,6.01
2018-12-05T05:27:14.930Z,6.02
2018-12-05T05:28:14.852Z,6.02
2018-12-05T05:29:14.890Z,6.03
2018-12-05T05:30:14.849Z,6.03
2018-12-05T05:31:14.872Z,6
2018-12-05T05:32:15.034Z,6.01
2018-12-05T05:33:15.585Z,6
2018-12-05T05:34:15.150Z,5.99
2018-12-05T05:35:14.883Z,6.02
2018-12-05T05:36:17.758Z,6.03
2018-12-05T05:37:14.917Z,6.04
2018-12-05T05:38:14.876Z,6.03
2018-12-05T05:39:15.162Z,6.02
2018-12-05T05:40:14.917Z,6.02
2018-12-05T05:41:14.844Z,6.02
2018-12-05T05:42:15.769Z,6.02
2018-12-05T05:43:14.889Z,6.02
2018-12-05T05:44:14.907Z,6.01
2018-12-05T05:45:15.136Z,6.02
2018-12-05T05:46:14.939Z,6.02
2018-12-05T05:47:15.148Z,6.04
2018-12-05T05:48:15.197Z,6.02
2018-12-05T05:49:15.015Z,6.03
2018-12-05T05:50:14.831Z,6.04
2018-12-05T05:51:14.933Z,6.02
2018-12-05T05:52:14.829Z,6.04
2018-12-05T05:53:15.015Z,6.06
2018-12-05T05:54:14.877Z,6.07
2018-12-05T05:55:14.863Z,6.06
2018-12-05T05:56:14.954Z,6.05
2018-12-05T05:57:14.924Z,6.06
2018-12-05T05:58:17.736Z,6.05
2018-12-05T05:59:14.883Z,6.05
2018-12-05T06:00:14.822Z,6.03
2018-12-05T06:01:14.868Z,6.03
2018-12-05T06:02:15.223Z,6.04
2018-12-05T06:03:14.809Z,6.04
2018-12-05T06:04:14.862Z,6.06
2018-12-05T06:05:15.190Z,6.05
2018-12-05T06:06:15.286Z,6.1
2018-12-05T06:07:15.088Z,6.08
2018-12-05T06:08:15.254Z,6.06
2018-12-05T06:09:14.838Z,6.07
2018-12-05T06:10:15.105Z,6.09
2018-12-05T06:11:14.891Z,6.11
2018-12-05T06:12:14.949Z,6.11
2018-12-05T06:13:14.816Z,6.13
2018-12-05T06:14:15.225Z,6.12
2018-12-05T06:15:15.703Z,6.11
2018-12-05T06:16:15.095Z,6.13
2018-12-05T06:17:14.909Z,6.12
2018-12-05T06:18:14.858Z,6.09
2018-12-05T06:19:14.901Z,6.13
2018-12-05T06:20:14.800Z,6.14
2018-12-05T06:21:14.929Z,6.14
2018-12-05T06:22:14.887Z,6.13
2018-12-05T06:23:14.906Z,6.12
2018-12-05T06:24:15.090Z,6.14
2018-12-05T06:25:14.788Z,6.12
2018-12-05T06:26:14.945Z,6.12
2018-12-05T06:27:14.854Z,6.14
2018-12-05T06:28:15.140Z,6.16
2018-12-05T06:29:15.169Z,6.15
2018-12-05T06:30:14.786Z,6.15
2018-12-05T06:31:14.813Z,6.15
2018-12-05T06:32:14.829Z,6.12
2018-12-05T06:33:14.923Z,6.16
2018-12-05T06:34:14.820Z,6.12
2018-12-05T06:35:14.866Z,6.11
2018-12-05T06:36:14.838Z,6.13
2018-12-05T06:37:14.788Z,6.12
2018-12-05T06:38:15.138Z,6.12
2018-12-05T06:39:14.932Z,6.11
2018-12-05T06:40:14.897Z,6.15
2018-12-05T06:41:14.845Z,6.13
2018-12-05T06:42:14.837Z,6.13
2018-12-05T06:43:14.953Z,6.13
2018-12-05T06:44:14.824Z,6.15
2018-12-05T06:45:14.898Z,6.15
2018-12-05T06:46:14.914Z,6.12
2018-12-05T06:47:14.968Z,6.13
2018-12-05T06:48:14.749Z,6.15
2018-12-05T06:49:14.787Z,6.15
2018-12-05T06:50:15.004Z,6.12
2018-12-05T06:51:14.941Z,6.1
2018-12-05T06:52:14.941Z,6.14
2018-12-05T06:53:14.915Z,6.16
2018-12-05T06:54:14.824Z,6.12
2018-12-05T06:55:14.781Z,6.14
2018-12-05T06:56:14.740Z,6.15
2018-12-05T06:57:14.763Z,6.16
2018-12-05T06:58:14.768Z,6.17
2018-12-05T06:59:14.776Z,6.17
2018-12-05T07:00:14.735Z,6.18
2018-12-05T07:01:14.906Z,6.18
2018-12-05T07:02:14.719Z,6.2
2018-12-05T07:03:14.799Z,6.2
2018-12-05T07:04:14.723Z,6.19
2018-12-05T07:05:14.711Z,6.2
2018-12-05T07:06:14.726Z,6.19
2018-12-05T07:07:14.716Z,6.2
2018-12-05T07:08:14.734Z,6.2
2018-12-05T07:09:14.759Z,6.18
2018-12-05T07:10:14.863Z,6.12
2018-12-05T07:11:14.780Z,6.1
2018-12-05T07:12:14.934Z,6.09
2018-12-05T07:13:16.068Z,6.09
2018-12-05T07:14:14.796Z,6.11
2018-12-05T07:15:14.717Z,6.1
2018-12-05T07:16:14.864Z,6.13
2018-12-05T07:17:14.753Z,6.13
2018-12-05T07:18:14.725Z,6.09
2018-12-05T07:19:14.697Z,6.11
2018-12-05T07:20:14.790Z,6.09
2018-12-05T07:21:14.797Z,6.12
2018-12-05T07:22:14.796Z,6.11
2018-12-05T07:23:14.765Z,6.1
2018-12-05T07:24:14.794Z,6.1
2018-12-05T07:25:14.736Z,6.06
2018-12-05T07:26:14.867Z,6.03
2018-12-05T07:27:14.872Z,6.02
2018-12-05T07:28:14.885Z,6.02
2018-12-05T07:29:14.716Z,6.01
2018-12-05T07:30:14.731Z,6.03
2018-12-05T07:31:14.712Z,6.03
2018-12-05T07:32:14.771Z,6.04
2018-12-05T07:33:14.725Z,6.04
2018-12-05T07:34:14.775Z,6.06
2018-12-05T07:35:14.690Z,6.07
2018-12-05T07:36:14.885Z,6.05
2018-12-05T07:37:14.844Z,6.02
2018-12-05T07:38:19.939Z,6
2018-12-05T07:39:14.907Z,6
2018-12-05T07:40:15.134Z,6
2018-12-05T07:41:14.928Z,6.01
2018-12-05T07:42:14.852Z,6.05
2018-12-05T07:43:14.805Z,6.04
2018-12-05T07:44:14.713Z,6.01
2018-12-05T07:45:14.700Z,6
2018-12-05T07:46:14.668Z,6.04
2018-12-05T07:47:14.762Z,6.02
2018-12-05T07:48:14.906Z,6.06
2018-12-05T07:49:15.138Z,6.06
2018-12-05T07:50:16.173Z,6.07
2018-12-05T07:51:14.640Z,6.08
2018-12-05T07:52:14.690Z,6.06
2018-12-05T07:53:14.758Z,6.08
2018-12-05T07:54:14.779Z,6.05
2018-12-05T07:55:14.736Z,6.07
2018-12-05T07:56:14.867Z,6.07
2018-12-05T07:57:14.664Z,6.06
2018-12-05T07:58:14.825Z,6.02
2018-12-05T07:59:14.696Z,6.04
2018-12-05T08:00:14.639Z,6.02
2018-12-05T08:01:14.854Z,6.05
2018-12-05T08:02:14.749Z,6.05
2018-12-05T08:03:14.797Z,6.05
2018-12-05T08:04:14.706Z,6.06
2018-12-05T08:05:14.704Z,6.05
2018-12-05T08:06:15.067Z,6.04
2018-12-05T08:07:15.093Z,6.07
2018-12-05T08:08:14.724Z,6.05
2018-12-05T08:09:14.744Z,6.06
2018-12-05T08:10:14.865Z,6.02
2018-12-05T08:11:14.850Z,6.01
2018-12-05T08:12:14.843Z,6.02
2018-12-05T08:13:14.659Z,6.02
2018-12-05T08:14:14.695Z,6.02
2018-12-05T08:15:14.703Z,6
2018-12-05T08:16:14.715Z,6.03
2018-12-05T08:17:14.620Z,6.02
2018-12-05T08:18:14.868Z,6.01
2018-12-05T08:19:14.722Z,6
2018-12-05T08:20:14.871Z,6.04
2018-12-05T08:21:14.655Z,6.02
2018-12-05T08:22:14.884Z,6.02
2018-12-05T08:23:14.825Z,6.02
2018-12-05T08:24:14.653Z,6.03
2018-12-05T08:25:14.751Z,6.05
2018-12-05T08:26:14.825Z,6.07
2018-12-05T08:27:14.881Z,6.07
2018-12-05T08:28:14.695Z,6.03
2018-12-05T08:29:14.970Z,6.05
2018-12-05T08:30:14.639Z,6.04
2018-12-05T08:31:14.805Z,6.08
2018-12-05T08:32:14.813Z,6.07
2018-12-05T08:33:15.384Z,6.06
2018-12-05T08:34:14.747Z,6.05
2018-12-05T08:35:14.627Z,6.06
2018-12-05T08:36:14.623Z,6.06
2018-12-05T08:37:14.587Z,6.09
2018-12-05T08:38:14.656Z,6.09
2018-12-05T08:39:14.863Z,6.11
2018-12-05T08:40:14.617Z,6.06
2018-12-05T08:41:14.596Z,6.08
2018-12-05T08:42:14.647Z,6.09
2018-12-05T08:43:14.655Z,6.08
2018-12-05T08:44:14.559Z,6.1
2018-12-05T08:45:14.656Z,6.05
2018-12-05T08:46:14.624Z,6.09
2018-12-05T08:47:14.647Z,6.06
2018-12-05T08:48:14.621Z,6.07
2018-12-05T08:49:14.594Z,6.08
2018-12-05T08:50:14.565Z,6.1
2018-12-05T08:51:14.673Z,6.08
2018-12-05T08:52:14.553Z,6.11
2018-12-05T08:53:14.631Z,6.12
2018-12-05T08:54:21.587Z,6.1
2018-12-05T08:55:14.567Z,6.11
2018-12-05T08:56:14.641Z,6.08
2018-12-05T08:57:14.590Z,6.09
2018-12-05T08:58:14.555Z,6.09
2018-12-05T08:59:14.655Z,6.07
2018-12-05T09:00:14.674Z,6.1
2018-12-05T09:01:14.596Z,6.08
2018-12-05T09:02:15.180Z,6.11
2018-12-05T09:03:14.588Z,6.09
2018-12-05T09:04:14.564Z,6.09
2018-12-05T09:05:14.829Z,6.11
2018-12-05T09:06:14.792Z,6.13
2018-12-05T09:07:14.586Z,6.08
2018-12-05T09:08:14.802Z,6.05
2018-12-05T09:09:14.742Z,6.08
2018-12-05T09:10:15.390Z,6.07
2018-12-05T09:11:14.923Z,6.1
2018-12-05T09:12:14.690Z,6.09
2018-12-05T09:13:14.614Z,6.1
2018-12-05T09:14:14.624Z,6.09
2018-12-05T09:15:14.667Z,6.12
2018-12-05T09:16:14.684Z,6.1
2018-12-05T09:17:14.865Z,6.09
2018-12-05T09:18:14.617Z,6.08
2018-12-05T09:19:14.528Z,6.12
2018-12-05T09:20:14.664Z,6.11
2018-12-05T09:21:14.664Z,6.11
2018-12-05T09:22:14.766Z,6.11
2018-12-05T09:23:14.646Z,6.11
2018-12-05T09:24:14.536Z,6.11
2018-12-05T09:25:14.575Z,6.13
2018-12-05T09:26:14.729Z,6.15
2018-12-05T09:27:14.649Z,6.12
2018-12-05T09:28:14.566Z,6.14
2018-12-05T09:29:14.557Z,6.12
2018-12-05T09:30:15.227Z,6.07
2018-12-05T09:31:14.796Z,6.09
2018-12-05T09:32:14.604Z,6.1
2018-12-05T09:33:14.591Z,6.1
2018-12-05T09:34:14.514Z,6.14
2018-12-05T09:35:14.806Z,6.17
2018-12-05T09:36:14.581Z,6.16
2018-12-05T09:37:14.579Z,6.18
2018-12-05T09:38:14.704Z,6.16
2018-12-05T09:39:14.778Z,6.15
2018-12-05T09:40:14.548Z,6.16
2018-12-05T09:41:14.561Z,6.14
2018-12-05T09:42:14.651Z,6.17
2018-12-05T09:43:14.537Z,6.19
2018-12-05T09:44:14.523Z,6.18
2018-12-05T09:45:14.555Z,6.15
2018-12-05T09:46:15.342Z,6.18
2018-12-05T09:47:16.551Z,6.19
2018-12-05T09:48:14.719Z,6.21
2018-12-05T09:49:14.977Z,6.14
2018-12-05T09:50:14.602Z,6.17
2018-12-05T09:51:14.628Z,6.17
2018-12-05T09:52:14.535Z,6.11
2018-12-05T09:53:14.538Z,6.17
2018-12-05T09:54:14.640Z,6.18
2018-12-05T09:55:14.634Z,6.22
2018-12-05T09:56:14.688Z,6.21
2018-12-05T09:57:14.709Z,6.18
2018-12-05T09:58:14.694Z,6.2
2018-12-05T09:59:14.621Z,6.2
2018-12-05T10:00:14.576Z,6.23
2018-12-05T10:01:14.805Z,6.18
2018-12-05T10:02:14.671Z,6.18
2018-12-05T10:03:14.914Z,6.2
2018-12-05T10:04:14.807Z,6.22
2018-12-05T10:05:14.873Z,6.24
2018-12-05T10:06:14.612Z,6.23
2018-12-05T10:07:14.644Z,6.24
2018-12-05T10:08:14.872Z,6.25
2018-12-05T10:09:14.606Z,6.26
2018-12-05T10:10:14.721Z,6.28
2018-12-05T10:11:14.582Z,6.26
2018-12-05T10:12:14.467Z,6.29
2018-12-05T10:13:14.463Z,6.29
2018-12-05T10:14:14.627Z,6.24
2018-12-05T10:15:14.647Z,6.29
2018-12-05T10:16:15.047Z,6.28
2018-12-05T10:17:14.835Z,6.29
2018-12-05T10:18:14.564Z,6.26
2018-12-05T10:19:14.477Z,6.25
2018-12-05T10:20:14.732Z,6.26
2018-12-05T10:21:14.452Z,6.26
2018-12-05T10:22:14.532Z,6.27
2018-12-05T10:23:14.466Z,6.26
2018-12-05T10:24:14.475Z,6.26
2018-12-05T10:25:14.478Z,6.29
2018-12-05T10:26:14.624Z,6.3
2018-12-05T10:27:14.527Z,6.32
2018-12-05T10:28:14.914Z,6.29
2018-12-05T10:29:14.596Z,6.3
2018-12-05T10:30:14.533Z,6.31
2018-12-05T10:31:14.438Z,6.3
2018-12-05T10:32:14.521Z,6.28
2018-12-05T10:33:14.528Z,6.31
2018-12-05T10:34:14.442Z,6.3
2018-12-05T10:35:14.433Z,6.29
2018-12-05T10:36:14.713Z,6.33
2018-12-05T10:37:14.454Z,6.29
2018-12-05T10:38:14.463Z,6.32
2018-12-05T10:39:14.443Z,6.33
2018-12-05T10:40:14.835Z,6.34
2018-12-05T10:41:14.419Z,6.37
2018-12-05T10:42:14.475Z,6.38
2018-12-05T10:43:14.463Z,6.38
2018-12-05T10:44:14.571Z,6.36
2018-12-05T10:45:14.668Z,6.4
2018-12-05T10:46:15.273Z,6.41
2018-12-05T10:47:14.823Z,6.39
2018-12-05T10:48:14.637Z,6.42
2018-12-05T10:49:14.429Z,6.43
2018-12-05T10:50:14.540Z,6.43
2018-12-05T10:51:14.761Z,6.47
2018-12-05T10:52:14.511Z,6.44
2018-12-05T10:53:14.538Z,6.43
2018-12-05T10:54:14.475Z,6.42
2018-12-05T10:55:14.587Z,6.41
2018-12-05T10:56:14.628Z,6.46
2018-12-05T10:57:14.714Z,6.45
2018-12-05T10:58:14.438Z,6.51
2018-12-05T10:59:14.527Z,6.52
2018-12-05T11:00:14.580Z,6.52
2018-12-05T11:01:14.476Z,6.52
2018-12-05T11:02:15.165Z,6.53
2018-12-05T11:03:14.441Z,6.54
2018-12-05T11:04:14.575Z,6.55
2018-12-05T11:05:14.589Z,6.52
2018-12-05T11:06:14.678Z,6.48
2018-12-05T11:07:14.413Z,6.51
2018-12-05T11:08:14.457Z,6.54
2018-12-05T11:09:14.703Z,6.52
2018-12-05T11:10:14.503Z,6.55
2018-12-05T11:11:14.556Z,6.53
2018-12-05T11:12:14.512Z,6.52
2018-12-05T11:13:14.540Z,6.51
2018-12-05T11:14:14.613Z,6.53
2018-12-05T11:15:14.445Z,6.54
2018-12-05T11:16:14.608Z,6.54
2018-12-05T11:17:14.606Z,6.56
2018-12-05T11:18:14.430Z,6.55
2018-12-05T11:19:14.940Z,6.57
2018-12-05T11:20:14.611Z,6.55
2018-12-05T11:21:14.445Z,6.56
2018-12-05T11:22:14.548Z,6.58
2018-12-05T11:23:14.505Z,6.55
2018-12-05T11:24:14.723Z,6.52
2018-12-05T11:25:14.431Z,6.52
2018-12-05T11:26:14.507Z,6.57
2018-12-05T11:27:14.737Z,6.57
2018-12-05T11:28:15.271Z,6.57
2018-12-05T11:29:14.504Z,6.57
2018-12-05T11:30:14.681Z,6.57
2018-12-05T11:31:14.658Z,6.51
2018-12-05T11:32:14.698Z,6.54
2018-12-05T11:33:14.533Z,6.54
2018-12-05T11:34:14.543Z,6.5
2018-12-05T11:35:14.406Z,6.57
2018-12-05T11:36:14.483Z,6.56
2018-12-05T11:37:14.802Z,6.59
2018-12-05T11:38:14.422Z,6.54
2018-12-05T11:39:14.491Z,6.56
2018-12-05T11:40:15.195Z,6.54
2018-12-05T11:41:14.453Z,6.55
2018-12-05T11:42:14.587Z,6.59
2018-12-05T11:43:14.409Z,6.6
2018-12-05T11:44:14.531Z,6.58
2018-12-05T11:45:14.614Z,6.57
2018-12-05T11:46:14.763Z,6.57
2018-12-05T11:47:14.496Z,6.58
2018-12-05T11:48:14.554Z,6.57
2018-12-05T11:49:14.950Z,6.57
2018-12-05T11:50:14.411Z,6.57
2018-12-05T11:51:14.446Z,6.58
2018-12-05T11:52:14.566Z,6.6
2018-12-05T11:53:14.480Z,6.62
2018-12-05T11:54:14.340Z,6.6
2018-12-05T11:55:14.486Z,6.61
2018-12-05T11:56:14.390Z,6.59
2018-12-05T11:57:14.362Z,6.6
2018-12-05T11:58:14.411Z,6.63
2018-12-05T11:59:14.377Z,6.61
2018-12-05T12:00:14.355Z,6.61
2018-12-05T12:01:14.359Z,6.6
2018-12-05T12:02:14.410Z,6.59
2018-12-05T12:03:14.357Z,6.65
2018-12-05T12:04:14.476Z,6.67
2018-12-05T12:05:14.522Z,6.68
2018-12-05T12:06:14.542Z,6.71
2018-12-05T12:07:14.386Z,6.74
2018-12-05T12:08:14.974Z,6.72
2018-12-05T12:09:14.432Z,6.71
2018-12-05T12:10:14.868Z,6.73
2018-12-05T12:11:14.361Z,6.74
2018-12-05T12:12:14.434Z,6.71
2018-12-05T12:13:14.578Z,6.75
2018-12-05T12:14:14.417Z,6.71
2018-12-05T12:15:14.363Z,6.67
2018-12-05T12:16:14.416Z,6.71
2018-12-05T12:17:14.336Z,6.77
2018-12-05T12:18:14.482Z,6.73
2018-12-05T12:19:14.349Z,6.73
2018-12-05T12:20:14.467Z,6.73
2018-12-05T12:21:14.363Z,6.76
2018-12-05T12:22:14.380Z,6.77
2018-12-05T12:23:15.063Z,6.77
2018-12-05T12:24:14.454Z,6.78
2018-12-05T12:25:15.840Z,6.76
2018-12-05T12:26:15.622Z,6.78
2018-12-05T12:27:14.435Z,6.8
2018-12-05T12:28:14.647Z,6.86
2018-12-05T12:29:14.478Z,6.88
2018-12-05T12:30:16.481Z,6.88
2018-12-05T12:31:14.337Z,6.87
2018-12-05T12:32:14.408Z,6.89
2018-12-05T12:33:14.754Z,6.92
2018-12-05T12:34:14.454Z,6.87
2018-12-05T12:35:14.369Z,6.86
2018-12-05T12:36:14.362Z,6.88
2018-12-05T12:37:14.302Z,6.87
2018-12-05T12:38:14.375Z,6.85
2018-12-05T12:39:14.553Z,6.91
2018-12-05T12:40:14.665Z,6.9
2018-12-05T12:41:14.351Z,6.93
2018-12-05T12:42:14.342Z,6.91
2018-12-05T12:43:14.321Z,6.95
2018-12-05T12:44:14.422Z,6.95
2018-12-05T12:45:14.279Z,6.93
2018-12-05T12:46:14.383Z,6.95
2018-12-05T12:47:14.715Z,6.92
2018-12-05T12:48:14.359Z,6.96
2018-12-05T12:49:14.519Z,6.98
2018-12-05T12:50:14.657Z,6.95
2018-12-05T12:51:14.686Z,6.95
2018-12-05T12:52:14.304Z,6.93
2018-12-05T12:53:14.294Z,6.96
2018-12-05T12:54:14.435Z,6.98
2018-12-05T12:55:14.539Z,6.94
2018-12-05T12:56:14.362Z,6.93
2018-12-05T12:57:14.333Z,6.95
2018-12-05T12:58:15.130Z,6.99
2018-12-05T12:59:14.498Z,6.95
2018-12-05T13:00:14.517Z,6.98
2018-12-05T13:01:14.293Z,7
2018-12-05T13:02:14.301Z,6.98
2018-12-05T13:03:14.470Z,7
2018-12-05T13:04:14.321Z,7.06
2018-12-05T13:05:14.463Z,7.04
2018-12-05T13:06:14.683Z,7.04
2018-12-05T13:07:14.337Z,7.02
2018-12-05T13:08:14.321Z,7
2018-12-05T13:09:14.345Z,6.99
2018-12-05T13:10:14.514Z,6.97
2018-12-05T13:11:14.721Z,7
2018-12-05T13:12:14.316Z,7
2018-12-05T13:13:14.270Z,6.99
2018-12-05T13:14:14.465Z,6.96
2018-12-05T13:15:14.574Z,6.99
2018-12-05T13:16:14.565Z,7
2018-12-05T13:17:14.263Z,6.99
2018-12-05T13:18:14.293Z,6.98
2018-12-05T13:19:14.412Z,7.01
2018-12-05T13:20:14.215Z,6.99
2018-12-05T13:21:14.324Z,7.02
2018-12-05T13:22:14.353Z,7
2018-12-05T13:23:14.699Z,6.98